Time;durP1;ratioP1;P1;durP2;ratioP2;P2;SDS_P1;SDS_P2;PMS_P1;PMS_P2;Temp;Humidity;BMP_temperature;BMP_pressure;BME280_temperature;BME280_humidity;BME280_pressure;Samples;Min_cycle;Max_cycle;Signal;HPM_P1;HPM_P2
2022/06/16 00:00:36;;;;;;;6.72;5.30;;;17.00;99.90;;;;;;5001110;28;20034;-74
2022/06/16 00:03:05;;;;;;;8.10;6.50;;;17.00;99.90;;;;;;5021691;28;20030;-74
2022/06/16 00:05:34;;;;;;;14.23;8.43;;;17.00;99.90;;;;;;4994234;28;20309;-74
2022/06/16 00:08:01;;;;;;;15.07;8.50;;;17.00;99.90;;;;;;5012181;28;20418;-74
2022/06/16 00:10:27;;;;;;;10.25;6.57;;;17.00;99.90;;;;;;5012068;28;20030;-74
2022/06/16 00:12:52;;;;;;;9.63;6.78;;;17.00;99.90;;;;;;5016629;28;20049;-74
2022/06/16 00:15:22;;;;;;;13.00;6.22;;;17.00;99.90;;;;;;5012086;28;20022;-74
2022/06/16 00:17:47;;;;;;;10.95;6.95;;;17.00;99.90;;;;;;5006940;28;20101;-74
2022/06/16 00:20:13;;;;;;;8.32;6.20;;;16.90;99.90;;;;;;5022607;28;20105;-74
2022/06/16 00:22:39;;;;;;;8.50;6.20;;;16.90;99.90;;;;;;5010782;28;20033;-74
2022/06/16 00:25:08;;;;;;;8.23;5.68;;;16.90;99.90;;;;;;5011604;28;20452;-74
2022/06/16 00:27:34;;;;;;;8.43;6.03;;;16.90;99.90;;;;;;5011878;28;20064;-74
2022/06/16 00:30:00;;;;;;;7.00;5.82;;;16.90;99.90;;;;;;5001184;28;20075;-74
2022/06/16 00:32:26;;;;;;;8.85;6.18;;;16.90;99.90;;;;;;5017724;28;20065;-74
2022/06/16 00:34:51;;;;;;;8.40;5.78;;;16.80;99.90;;;;;;5011719;28;20033;-74
2022/06/16 00:37:19;;;;;;;8.32;6.03;;;16.80;99.90;;;;;;5012041;28;20029;-74
2022/06/16 00:39:45;;;;;;;8.77;6.05;;;16.80;99.90;;;;;;5011523;28;20022;-74
2022/06/16 00:42:16;;;;;;;8.07;6.22;;;16.70;99.90;;;;;;5010687;28;20037;-74
2022/06/16 00:44:44;;;;;;;9.25;7.00;;;16.70;99.90;;;;;;5011335;28;20030;-74
2022/06/16 00:47:11;;;;;;;9.10;6.72;;;16.70;99.90;;;;;;5011659;28;20037;-74
2022/06/16 00:49:40;;;;;;;10.00;6.72;;;16.70;99.90;;;;;;5011776;28;20487;-75
2022/06/16 00:52:12;;;;;;;9.40;6.63;;;16.70;99.90;;;;;;5019478;28;20485;-74
2022/06/16 00:54:51;;;;;;;7.60;6.47;;;16.60;99.90;;;;;;5022391;28;20075;-74
2022/06/16 00:57:21;;;;;;;7.97;6.57;;;16.60;99.90;;;;;;4981725;28;20128;-74
2022/06/16 00:59:47;;;;;;;9.98;6.47;;;16.60;99.90;;;;;;5011847;28;20061;-74
2022/06/16 01:02:15;;;;;;;10.13;6.65;;;16.60;99.90;;;;;;5011141;28;20033;-74
2022/06/16 01:04:52;;;;;;;9.18;6.45;;;16.60;99.90;;;;;;5010851;28;20030;-74
2022/06/16 01:07:30;;;;;;;9.27;6.95;;;16.50;99.90;;;;;;5011615;28;20022;-74
2022/06/16 01:09:57;;;;;;;7.63;5.80;;;16.50;99.90;;;;;;5011625;28;20052;-74
2022/06/16 01:16:02;;;;;;;6.45;5.60;;;16.40;99.90;;;;;;5011527;28;20033;-74
2022/06/16 01:18:37;;;;;;;7.30;5.70;;;16.40;99.90;;;;;;4998917;28;20101;-74
2022/06/16 01:21:39;;;;;;;10.48;6.13;;;16.40;99.90;;;;;;5004694;28;20102;-74
2022/06/16 01:24:32;;;;;;;8.55;5.32;;;16.40;99.90;;;;;;5014977;28;20533;-74
2022/06/16 01:27:21;;;;;;;9.13;5.53;;;16.30;99.90;;;;;;5015514;28;20028;-74
2022/06/16 01:30:12;;;;;;;9.27;5.75;;;16.40;99.90;;;;;;5030431;28;20053;-74
2022/06/16 01:33:03;;;;;;;10.82;6.40;;;16.30;99.90;;;;;;5032283;28;20366;-74
2022/06/16 01:35:35;;;;;;;10.63;5.97;;;16.30;99.90;;;;;;5028128;28;20163;-74
2022/06/16 01:38:18;;;;;;;9.07;6.03;;;16.20;99.90;;;;;;5034623;28;20475;-74
2022/06/16 01:41:32;;;;;;;8.75;5.95;;;16.20;99.90;;;;;;5034214;28;20029;-74
2022/06/16 01:44:11;;;;;;;11.40;5.40;;;16.20;99.90;;;;;;5020638;28;20347;-74
2022/06/16 01:46:40;;;;;;;6.28;5.28;;;16.20;99.90;;;;;;5003557;28;20026;-74
2022/06/16 01:49:18;;;;;;;10.02;5.60;;;16.20;99.90;;;;;;5035151;28;20413;-74
2022/06/16 01:51:51;;;;;;;8.35;5.45;;;16.20;99.90;;;;;;5033788;28;20117;-74
2022/06/16 01:54:34;;;;;;;8.80;5.20;;;16.20;99.90;;;;;;5034658;28;20029;-74
2022/06/16 01:57:03;;;;;;;11.38;5.65;;;16.20;99.90;;;;;;5034536;28;20061;-74
2022/06/16 01:59:39;;;;;;;6.55;4.85;;;16.20;99.90;;;;;;5033447;28;20037;-74
2022/06/16 02:02:13;;;;;;;14.45;5.47;;;16.20;99.90;;;;;;5034174;28;20030;-74
2022/06/16 02:04:44;;;;;;;7.93;5.20;;;16.20;99.90;;;;;;5034610;28;20049;-74
2022/06/16 02:07:18;;;;;;;10.07;5.43;;;16.20;99.90;;;;;;5034234;28;20021;-74
2022/06/16 02:09:49;;;;;;;9.53;5.83;;;16.30;99.90;;;;;;5033940;28;20029;-74
2022/06/16 02:15:39;;;;;;;6.82;4.63;;;16.30;99.90;;;;;;5033825;28;20041;-74
2022/06/16 02:18:11;;;;;;;8.25;4.90;;;16.30;99.90;;;;;;5020155;28;20133;-74
2022/06/16 02:20:55;;;;;;;8.70;5.35;;;16.30;99.90;;;;;;5031815;28;20029;-74
2022/06/16 02:23:21;;;;;;;8.55;5.22;;;16.20;99.90;;;;;;5033757;28;20029;-74
2022/06/16 02:25:50;;;;;;;9.10;5.30;;;16.20;99.90;;;;;;5034453;28;20433;-74
2022/06/16 02:28:15;;;;;;;8.38;4.60;;;16.30;99.90;;;;;;5014837;28;20059;-74
2022/06/16 02:31:01;;;;;;;7.22;4.82;;;16.20;99.90;;;;;;5031960;28;20033;-74
2022/06/16 02:33:35;;;;;;;;;;;16.20;99.90;;;;;;5032553;28;20120;-74
2022/06/16 02:36:19;;;;;;;6.18;4.72;;;16.30;99.90;;;;;;5033240;28;19909;-74
2022/06/16 02:39:10;;;;;;;11.63;4.80;;;16.20;99.90;;;;;;5032544;28;20547;-74
2022/06/16 02:41:47;;;;;;;7.30;5.05;;;16.30;99.90;;;;;;5020731;28;20044;-74
2022/06/16 02:44:53;;;;;;;7.65;4.93;;;16.20;99.90;;;;;;5033176;28;20074;-74
2022/06/16 02:47:47;;;;;;;9.40;4.72;;;16.20;99.90;;;;;;5000918;28;20056;-74
2022/06/16 02:50:43;;;;;;;5.10;4.35;;;16.20;99.90;;;;;;5021396;28;20489;-74
2022/06/16 02:56:23;;;;;;;8.80;4.18;;;16.20;99.90;;;;;;5033007;28;20029;-75
2022/06/16 02:58:50;;;;;;;6.82;4.40;;;16.10;99.90;;;;;;5033148;28;20021;-74
2022/06/16 03:01:17;;;;;;;10.05;4.72;;;16.10;99.90;;;;;;5033283;28;20029;-74
2022/06/16 03:04:00;;;;;;;11.15;4.93;;;16.10;99.90;;;;;;5015329;28;20037;-74
2022/06/16 03:06:26;;;;;;;8.85;4.43;;;16.10;99.90;;;;;;5032570;28;20315;-74
2022/06/16 03:08:51;;;;;;;6.57;3.90;;;16.10;99.90;;;;;;5033302;28;20122;-74
2022/06/16 03:11:17;;;;;;;7.03;3.95;;;16.10;99.90;;;;;;5030914;28;20033;-74
2022/06/16 03:13:42;;;;;;;5.80;4.40;;;16.10;99.90;;;;;;5032843;28;20021;-74
2022/06/16 03:16:10;;;;;;;9.25;4.55;;;16.10;99.90;;;;;;5033016;28;20109;-74
2022/06/16 03:18:35;;;;;;;6.50;4.03;;;16.00;99.90;;;;;;5017722;28;20142;-74
2022/06/16 03:21:01;;;;;;;8.77;4.68;;;16.00;99.90;;;;;;5017903;28;20618;-74
2022/06/16 03:23:26;;;;;;;7.15;4.22;;;16.00;99.90;;;;;;5028555;28;20052;-75
2022/06/16 03:25:52;;;;;;;6.78;4.75;;;16.00;99.90;;;;;;5030668;28;20036;-74
2022/06/16 03:28:18;;;;;;;5.85;4.20;;;16.00;99.90;;;;;;5031328;28;20048;-74
2022/06/16 03:30:44;;;;;;;8.30;4.50;;;15.90;99.90;;;;;;5032517;28;20459;-74
2022/06/16 03:33:11;;;;;;;14.95;4.25;;;15.90;99.90;;;;;;5032535;28;20133;-74
2022/06/16 03:35:37;;;;;;;7.60;4.60;;;15.90;99.90;;;;;;5032654;28;20029;-74
2022/06/16 03:38:07;;;;;;;6.03;4.18;;;15.90;99.90;;;;;;5032244;28;20052;-74
2022/06/16 03:40:32;;;;;;;10.13;4.50;;;15.90;99.90;;;;;;5031608;28;20017;-74
2022/06/16 03:42:58;;;;;;;10.48;5.05;;;15.90;99.90;;;;;;5032561;28;20044;-74
2022/06/16 03:45:23;;;;;;;7.70;5.05;;;15.80;99.90;;;;;;5032270;28;20104;-74
2022/06/16 03:47:49;;;;;;;13.40;5.03;;;15.90;99.90;;;;;;5014763;28;20079;-74
2022/06/16 03:50:16;;;;;;;9.00;5.50;;;15.90;99.90;;;;;;5032250;28;20087;-74
2022/06/16 03:52:42;;;;;;;6.90;4.97;;;15.90;99.90;;;;;;5031616;28;20021;-74
2022/06/16 03:55:08;;;;;;;7.82;5.00;;;15.90;99.90;;;;;;5031743;28;20040;-74
2022/06/16 03:57:34;;;;;;;9.13;4.90;;;15.90;99.90;;;;;;5032078;28;20029;-74
2022/06/16 03:59:59;;;;;;;6.13;4.07;;;15.90;99.90;;;;;;5031990;28;20075;-74
2022/06/16 04:02:25;;;;;;;8.15;4.07;;;15.90;99.90;;;;;;5032303;28;20049;-74
2022/06/16 04:04:50;;;;;;;7.18;4.30;;;16.00;99.90;;;;;;5031148;28;20036;-74
2022/06/16 04:07:16;;;;;;;8.07;4.65;;;16.00;99.90;;;;;;5032427;28;20029;-74
2022/06/16 04:09:42;;;;;;;8.32;4.63;;;16.00;99.90;;;;;;5032043;28;20027;-74
2022/06/16 04:12:08;;;;;;;5.82;4.28;;;16.10;99.90;;;;;;5031639;28;20382;-74
2022/06/16 04:14:33;;;;;;;9.48;4.75;;;16.10;99.90;;;;;;5032525;28;20029;-75
2022/06/16 04:16:59;;;;;;;8.98;5.15;;;16.10;99.90;;;;;;5032181;28;20455;-74
2022/06/16 04:19:25;;;;;;;6.53;4.30;;;16.20;99.90;;;;;;5026016;28;20027;-74
2022/06/16 04:21:53;;;;;;;11.30;4.90;;;16.20;99.90;;;;;;5031713;28;20477;-74
2022/06/16 04:24:20;;;;;;;9.30;4.90;;;16.20;99.90;;;;;;5032322;28;20029;-74
2022/06/16 04:26:47;;;;;;;8.30;4.80;;;16.30;99.90;;;;;;5032586;28;20096;-74
2022/06/16 04:29:13;;;;;;;6.53;4.80;;;16.30;99.90;;;;;;5032747;28;20048;-74
2022/06/16 04:31:38;;;;;;;7.75;4.53;;;16.30;99.90;;;;;;5032943;28;20021;-74
2022/06/16 04:34:05;;;;;;;8.70;4.97;;;16.30;99.90;;;;;;5032019;28;20092;-74
2022/06/16 04:36:30;;;;;;;9.10;5.00;;;16.30;99.90;;;;;;5032096;28;20550;-74
2022/06/16 04:38:58;;;;;;;12.05;5.07;;;16.30;99.90;;;;;;5032021;28;20124;-74
2022/06/16 04:41:23;;;;;;;5.32;4.07;;;16.20;99.90;;;;;;5030422;28;20033;-75
2022/06/16 04:43:49;;;;;;;8.77;4.80;;;16.30;99.90;;;;;;5031471;28;20083;-75
2022/06/16 04:46:16;;;;;;;9.35;4.93;;;16.40;99.90;;;;;;5031433;28;20071;-74
2022/06/16 04:48:43;;;;;;;10.02;4.47;;;16.40;99.90;;;;;;5031627;28;20022;-74
2022/06/16 04:51:10;;;;;;;8.82;5.22;;;16.50;99.90;;;;;;5030472;28;20019;-74
2022/06/16 04:53:36;;;;;;;7.07;4.75;;;16.60;99.90;;;;;;5031809;28;20046;-74
2022/06/16 04:56:03;;;;;;;9.30;4.68;;;16.60;99.90;;;;;;5030945;28;20434;-74
2022/06/16 04:58:29;;;;;;;8.68;4.80;;;16.70;99.90;;;;;;5031548;28;20029;-74
2022/06/16 05:00:56;;;;;;;10.00;5.35;;;16.80;99.90;;;;;;5030744;28;20029;-75
2022/06/16 05:03:25;;;;;;;7.90;4.30;;;16.80;99.90;;;;;;5013309;28;20100;-74
2022/06/16 05:05:51;;;;;;;9.82;4.47;;;16.90;99.90;;;;;;5031403;28;20036;-74
2022/06/16 05:08:17;;;;;;;14.55;5.13;;;17.00;99.90;;;;;;5025884;28;20041;-74
2022/06/16 05:10:48;;;;;;;9.73;4.85;;;17.00;99.90;;;;;;5029617;28;20056;-75
2022/06/16 05:13:14;;;;;;;9.68;4.70;;;17.10;99.90;;;;;;5031060;28;20087;-75
2022/06/16 05:15:40;;;;;;;9.23;4.72;;;17.20;99.90;;;;;;5031402;28;20546;-76
2022/06/16 05:18:07;;;;;;;7.35;4.38;;;17.30;99.90;;;;;;5031719;28;20037;-69
2022/06/16 05:20:33;;;;;;;9.63;4.35;;;17.40;99.90;;;;;;5022036;28;20033;-68
2022/06/16 05:22:58;;;;;;;7.93;3.90;;;17.60;99.90;;;;;;5025872;28;20033;-75
2022/06/16 05:25:24;;;;;;;8.10;4.13;;;17.80;99.90;;;;;;5025855;28;20447;-72
2022/06/16 05:27:49;;;;;;;7.93;3.88;;;17.90;99.90;;;;;;5030100;28;20029;-69
2022/06/16 05:30:17;;;;;;;6.53;4.15;;;18.10;99.90;;;;;;5013698;28;20056;-70
2022/06/16 05:32:43;;;;;;;8.77;4.05;;;18.30;99.90;;;;;;5015375;28;20026;-70
2022/06/16 05:35:09;;;;;;;8.63;4.07;;;18.50;99.90;;;;;;5010196;28;20030;-70
2022/06/16 05:37:34;;;;;;;12.18;4.55;;;18.60;99.90;;;;;;5011671;28;20025;-70
2022/06/16 05:40:00;;;;;;;7.72;3.65;;;18.90;99.90;;;;;;5012700;28;20275;-70
2022/06/16 05:42:26;;;;;;;6.05;3.50;;;19.20;99.90;;;;;;5012622;28;20061;-70
2022/06/16 05:44:52;;;;;;;7.55;3.83;;;19.40;99.90;;;;;;5012740;28;20133;-70
2022/06/16 05:47:17;;;;;;;8.02;4.00;;;19.70;99.90;;;;;;5012975;28;20032;-70
2022/06/16 05:49:44;;;;;;;12.07;4.07;;;19.90;99.90;;;;;;5012741;28;20101;-70
2022/06/16 05:52:13;;;;;;;8.00;3.63;;;20.00;99.90;;;;;;5013643;28;20437;-70
2022/06/16 05:54:38;;;;;;;8.07;4.03;;;20.20;99.90;;;;;;5012251;28;20041;-69
2022/06/16 05:57:04;;;;;;;10.02;4.97;;;20.30;99.90;;;;;;5012523;28;20030;-70
2022/06/16 05:59:30;;;;;;;7.88;4.40;;;20.50;99.90;;;;;;5012031;28;20037;-70
2022/06/16 06:01:56;;;;;;;11.68;4.50;;;20.50;99.90;;;;;;5000304;28;20618;-70
2022/06/16 06:04:22;;;;;;;7.97;3.90;;;20.60;99.90;;;;;;5005364;28;20040;-69
2022/06/16 06:06:48;;;;;;;8.38;4.07;;;20.70;99.90;;;;;;5013336;28;20022;-70
2022/06/16 06:17:26;;;;;;;10.98;4.38;;;20.90;99.90;;;;;;5008164;28;20049;-70
2022/06/16 06:19:52;;;;;;;5.93;3.60;;;21.00;99.90;;;;;;5009573;28;20034;-70
2022/06/16 06:22:19;;;;;;;7.00;3.92;;;21.10;99.90;;;;;;5013216;28;20096;-70
2022/06/16 06:24:54;;;;;;;10.18;3.60;;;21.10;99.90;;;;;;5011319;28;20116;-70
2022/06/16 06:27:31;;;;;;;11.15;3.33;;;21.20;99.90;;;;;;5012249;28;20030;-70
2022/06/16 06:29:56;;;;;;;8.63;3.53;;;21.30;99.90;;;;;;5020287;28;20034;-70
2022/06/16 06:32:24;;;;;;;8.43;3.50;;;21.30;99.90;;;;;;5012257;28;20140;-70
2022/06/16 06:34:50;;;;;;;8.50;4.13;;;21.50;99.90;;;;;;5007923;28;20038;-70
2022/06/16 06:37:18;;;;;;;9.27;3.70;;;21.60;99.90;;;;;;5007508;28;20030;-70
2022/06/16 06:39:44;;;;;;;8.60;3.97;;;21.70;99.90;;;;;;5009113;28;20065;-70
2022/06/16 06:42:10;;;;;;;6.45;3.58;;;21.70;99.90;;;;;;5008743;28;20501;-70
2022/06/16 06:44:36;;;;;;;9.55;3.50;;;21.80;99.90;;;;;;5005258;28;20048;-70
2022/06/16 06:47:02;;;;;;;11.70;4.05;;;21.90;99.90;;;;;;4990436;28;20018;-70
2022/06/16 06:49:28;;;;;;;8.63;3.47;;;21.90;99.90;;;;;;5008884;28;20497;-70
2022/06/16 06:51:54;;;;;;;6.35;3.25;;;22.10;99.90;;;;;;5018786;28;20026;-72
2022/06/16 06:54:21;;;;;;;9.50;3.42;;;22.10;99.90;;;;;;5013926;28;20022;-74
2022/06/16 06:56:48;;;;;;;10.77;3.58;;;22.30;99.90;;;;;;5013701;28;20089;-72
2022/06/16 06:59:18;;;;;;;8.52;3.58;;;22.40;99.90;;;;;;5013131;28;20466;-81
2022/06/16 07:01:50;;;;;;;10.18;3.92;;;22.40;99.90;;;;;;5012797;28;21105;-72
2022/06/16 07:04:18;;;;;;;6.43;3.88;;;22.40;99.90;;;;;;5014516;28;20036;-71
2022/06/16 07:06:48;;;;;;;7.85;3.95;;;22.40;99.90;;;;;;5013680;28;20423;-73
2022/06/16 07:09:17;;;;;;;8.77;3.67;;;22.40;99.90;;;;;;4997437;28;20104;-71
2022/06/16 07:11:43;;;;;;;9.98;3.60;;;22.40;99.90;;;;;;5015704;28;20057;-71
2022/06/16 07:14:09;;;;;;;9.40;3.63;;;22.40;99.90;;;;;;5014016;28;20381;-71
2022/06/16 07:16:35;;;;;;;10.88;3.78;;;22.40;99.90;;;;;;5011631;28;20029;-71
2022/06/16 07:19:01;;;;;;;10.48;3.80;;;22.40;99.90;;;;;;4995914;28;20038;-71
2022/06/16 07:21:27;;;;;;;11.25;3.85;;;22.40;99.90;;;;;;5016753;28;20335;-70
2022/06/16 07:23:54;;;;;;;8.80;3.78;;;22.40;99.90;;;;;;5012732;28;20029;-70
2022/06/16 07:26:20;;;;;;;10.63;3.85;;;22.30;99.90;;;;;;5012865;28;20033;-70
2022/06/16 07:28:47;;;;;;;11.40;4.07;;;22.20;99.90;;;;;;5014732;28;20042;-71
2022/06/16 07:31:13;;;;;;;8.20;3.78;;;22.10;99.90;;;;;;4997047;28;20394;-72
2022/06/16 07:33:38;;;;;;;9.73;4.00;;;22.00;99.90;;;;;;5014273;28;20026;-70
2022/06/16 07:36:07;;;;;;;10.75;4.07;;;21.90;99.90;;;;;;5013009;28;20033;-71
2022/06/16 07:38:32;;;;;;;11.30;3.83;;;21.90;99.90;;;;;;5017756;28;20026;-70
2022/06/16 07:43:42;;;;;;;8.70;4.30;;;21.90;99.90;;;;;;5007061;28;20086;-71
2022/06/16 07:46:08;;;;;;;8.55;3.60;;;22.00;99.90;;;;;;4997974;28;20625;-71
2022/06/16 07:48:34;;;;;;;9.55;3.83;;;22.10;99.90;;;;;;5015536;28;20106;-68
2022/06/16 07:50:59;;;;;;;9.00;3.90;;;22.20;99.90;;;;;;5007871;28;20028;-80
2022/06/16 07:53:25;;;;;;;7.28;3.55;;;22.30;99.90;;;;;;5013689;28;20032;-75
2022/06/16 07:55:51;;;;;;;7.03;3.80;;;22.40;99.90;;;;;;5010516;28;20492;-69
2022/06/16 07:58:16;;;;;;;9.63;3.85;;;22.50;99.90;;;;;;5012546;28;20040;-69
2022/06/16 08:00:42;;;;;;;7.05;3.63;;;22.60;99.90;;;;;;5008453;28;20038;-69
2022/06/16 08:03:07;;;;;;;9.88;3.97;;;22.90;99.90;;;;;;4986241;28;20088;-69
2022/06/16 08:05:33;;;;;;;8.93;3.78;;;22.90;99.90;;;;;;4993188;28;20035;-70
2022/06/16 08:07:59;;;;;;;10.00;4.13;;;23.10;99.90;;;;;;4998695;28;20116;-69
2022/06/16 08:10:27;;;;;;;11.30;3.85;;;23.20;99.90;;;;;;5003785;28;20030;-70
2022/06/16 08:12:53;;;;;;;8.02;3.60;;;23.30;99.90;;;;;;4997408;28;20201;-68
2022/06/16 08:15:19;;;;;;;9.13;3.67;;;23.50;99.90;;;;;;5001615;28;20037;-69
2022/06/16 08:17:48;;;;;;;7.43;3.53;;;23.60;99.90;;;;;;5000466;28;20104;-69
2022/06/16 08:20:14;;;;;;;7.50;3.47;;;23.60;99.90;;;;;;5001956;28;20029;-69
2022/06/16 08:22:40;;;;;;;13.45;3.88;;;23.80;99.90;;;;;;5003104;28;20038;-68
2022/06/16 08:25:06;;;;;;;12.07;3.65;;;24.00;99.90;;;;;;5002397;28;20532;-68
2022/06/16 08:27:35;;;;;;;9.13;3.20;;;24.10;99.90;;;;;;5005249;28;20026;-69
2022/06/16 08:30:23;;;;;;;10.40;3.88;;;24.10;99.90;;;;;;5021550;28;20067;-68
2022/06/16 08:32:49;;;;;;;5.97;3.22;;;24.20;99.90;;;;;;5024434;28;20033;-67
2022/06/16 08:35:17;;;;;;;8.40;3.42;;;24.10;99.90;;;;;;5009051;28;20029;-70
2022/06/16 08:37:43;;;;;;;8.13;3.58;;;24.10;99.90;;;;;;5026883;28;20713;-68
2022/06/16 08:40:10;;;;;;;7.88;3.70;;;24.10;99.90;;;;;;5027164;28;20033;-67
2022/06/16 08:42:54;;;;;;;7.53;3.38;;;24.10;99.90;;;;;;5027663;28;20033;-68
2022/06/16 08:45:35;;;;;;;9.50;3.38;;;24.10;99.90;;;;;;5005197;28;20037;-68
2022/06/16 08:48:13;;;;;;;14.23;3.97;;;24.10;99.90;;;;;;5021485;28;20578;-67
2022/06/16 08:50:54;;;;;;;7.85;3.58;;;24.20;99.90;;;;;;5025910;28;20481;-68
2022/06/16 08:53:35;;;;;;;8.43;3.28;;;24.40;99.90;;;;;;5026357;28;20017;-68
2022/06/16 08:56:09;;;;;;;10.45;3.53;;;24.70;99.90;;;;;;5028175;28;20049;-68
2022/06/16 08:58:58;;;;;;;9.70;3.80;;;24.90;99.90;;;;;;5013775;28;20029;-69
2022/06/16 09:02:04;;;;;;;6.35;3.47;;;25.20;99.90;;;;;;5025476;28;20522;-67
2022/06/16 09:04:39;;;;;;;11.40;3.65;;;25.50;99.90;;;;;;4985987;28;20046;-68
2022/06/16 09:07:17;;;;;;;7.35;3.60;;;25.50;99.90;;;;;;5030147;28;20022;-67
2022/06/16 09:10:23;;;;;;;11.43;3.85;;;25.50;99.90;;;;;;5029361;28;20029;-68
2022/06/16 09:12:49;;;;;;;10.60;3.80;;;25.40;99.90;;;;;;5019678;28;20026;-68
2022/06/16 09:15:34;;;;;;;8.75;3.38;;;25.50;99.90;;;;;;5014621;28;20359;-68
2022/06/16 09:18:09;;;;;;;9.57;3.42;;;25.50;99.90;;;;;;5017579;28;20033;-67
2022/06/16 09:20:40;;;;;;;;;;;25.50;99.90;;;;;;5018455;28;20080;-68
2022/06/16 09:23:05;;;;;;;10.13;3.85;;;25.50;99.90;;;;;;5016453;28;19948;-68
2022/06/16 09:26:07;;;;;;;10.25;3.45;;;25.50;99.90;;;;;;5029522;28;20112;-68
2022/06/16 09:29:17;;;;;;;8.10;3.17;;;25.50;99.90;;;;;;5027581;28;20548;-68
2022/06/16 09:31:55;;;;;;;8.45;3.33;;;25.70;99.90;;;;;;5003100;28;20034;-67
2022/06/16 09:34:25;;;;;;;8.05;3.05;;;26.00;99.90;;;;;;5005018;28;20018;-68
2022/06/16 09:37:01;;;;;;;119.68;10.55;;;26.30;99.90;;;;;;5003126;28;20387;-67
2022/06/16 09:39:34;;;;;;;16.38;3.63;;;26.60;99.90;;;;;;5005794;28;20056;-68
2022/06/16 09:45:06;;;;;;;8.23;3.50;;;27.00;99.90;;;;;;5007195;28;20387;-69
2022/06/16 09:47:55;;;;;;;6.60;3.28;;;27.00;99.90;;;;;;5007251;28;20132;-69
2022/06/16 09:50:29;;;;;;;9.38;3.58;;;27.20;99.90;;;;;;4996254;28;20052;-69
2022/06/16 09:53:07;;;;;;;8.77;3.28;;;27.40;99.90;;;;;;5005210;28;20041;-69
2022/06/16 09:55:38;;;;;;;9.35;4.03;;;27.50;99.90;;;;;;5007755;28;20133;-69
2022/06/16 09:58:13;;;;;;;8.65;3.35;;;27.60;99.90;;;;;;5006375;28;20040;-68
2022/06/16 10:00:39;;;;;;;8.40;3.50;;;27.60;99.90;;;;;;5006776;28;20084;-69
2022/06/16 10:03:20;;;;;;;8.35;3.72;;;27.70;99.90;;;;;;5005085;28;20042;-69
2022/06/16 10:06:11;;;;;;;8.40;3.17;;;28.00;99.90;;;;;;5006919;28;20041;-69
2022/06/16 10:09:03;;;;;;;7.03;3.08;;;28.20;99.90;;;;;;5007608;28;20966;-69
2022/06/16 10:11:36;;;;;;;10.82;3.10;;;28.40;99.90;;;;;;5005827;28;20026;-70
2022/06/16 10:14:25;;;;;;;7.97;3.08;;;28.30;99.90;;;;;;5005756;28;20092;-69
2022/06/16 10:16:59;;;;;;;10.93;2.58;;;27.90;99.90;;;;;;5004561;28;20092;-69
2022/06/16 10:19:29;;;;;;;7.90;2.65;;;27.50;99.90;;;;;;5007821;28;20029;-69
2022/06/16 10:21:56;;;;;;;9.10;3.10;;;27.10;99.90;;;;;;5005310;28;20496;-67
2022/06/16 10:24:25;;;;;;;5.82;2.80;;;26.70;99.90;;;;;;4997312;28;20707;-67
2022/06/16 10:26:51;;;;;;;4.95;2.58;;;26.30;99.90;;;;;;5007025;28;20045;-66
2022/06/16 10:29:22;;;;;;;7.57;3.28;;;25.90;99.90;;;;;;5019271;28;20413;-67
2022/06/16 10:31:49;;;;;;;9.63;3.35;;;25.50;99.90;;;;;;5029150;28;20502;-67
2022/06/16 10:34:31;;;;;;;6.13;2.97;;;25.20;99.90;;;;;;5025065;28;20048;-67
2022/06/16 10:37:16;;;;;;;6.55;2.90;;;25.00;99.90;;;;;;5026276;28;20033;-67
2022/06/16 10:39:58;;;;;;;7.75;3.13;;;25.00;99.90;;;;;;5030086;28;20080;-80
2022/06/16 10:42:40;;;;;;;6.28;3.17;;;25.00;99.90;;;;;;5023006;28;20316;-67
2022/06/16 10:45:05;;;;;;;6.30;3.10;;;25.10;99.90;;;;;;5029962;28;20034;-67
2022/06/16 10:47:41;;;;;;;8.70;3.38;;;25.20;99.90;;;;;;5030514;28;20420;-66
2022/06/16 10:50:15;;;;;;;10.27;3.35;;;25.40;99.90;;;;;;5023522;28;20025;-66
2022/06/16 10:52:50;;;;;;;6.50;3.13;;;25.80;99.90;;;;;;5031814;28;20025;-67
2022/06/16 10:55:20;;;;;;;10.05;3.83;;;26.20;99.90;;;;;;5032321;28;20042;-67
2022/06/16 10:58:08;;;;;;;11.82;3.83;;;26.90;99.90;;;;;;5028401;28;20054;-66
2022/06/16 11:00:39;;;;;;;9.05;3.70;;;27.30;99.90;;;;;;5020222;28;20143;-67
2022/06/16 11:03:04;;;;;;;7.00;3.10;;;27.60;99.90;;;;;;5030089;28;20069;-67
2022/06/16 11:05:36;;;;;;;8.63;3.65;;;28.00;99.90;;;;;;5031669;28;20446;-67
2022/06/16 11:08:13;;;;;;;8.30;3.55;;;28.20;99.90;;;;;;5032569;28;20108;-67
2022/06/16 11:10:49;;;;;;;6.93;3.65;;;28.60;99.90;;;;;;5029983;28;20474;-66
2022/06/16 11:13:16;;;;;;;7.47;3.33;;;28.70;99.90;;;;;;5028091;28;20423;-66
2022/06/16 11:15:48;;;;;;;8.82;3.25;;;29.30;99.90;;;;;;5032389;28;20090;-66
2022/06/16 11:18:18;;;;;;;6.90;2.95;;;29.60;99.90;;;;;;5032171;28;20030;-66
2022/06/16 11:20:48;;;;;;;8.23;3.20;;;29.50;99.90;;;;;;5031310;28;20040;-67
2022/06/16 11:23:28;;;;;;;5.43;3.00;;;29.70;99.90;;;;;;5032737;28;20462;-67
2022/06/16 11:26:16;;;;;;;5.05;2.75;;;29.70;99.90;;;;;;5032739;28;20116;-67
2022/06/16 11:28:58;;;;;;;6.82;2.80;;;29.80;99.90;;;;;;5029509;28;20091;-67
2022/06/16 11:31:34;;;;;;;9.38;3.30;;;30.20;99.90;;;;;;5004685;28;20432;-67
2022/06/16 11:34:16;;;;;;;5.80;2.90;;;30.60;99.90;;;;;;5008154;28;20072;-67
2022/06/16 11:37:09;;;;;;;6.38;2.22;;;30.80;99.90;;;;;;5007412;28;20026;-70
2022/06/16 11:39:34;;;;;;;4.93;2.95;;;31.00;95.80;;;;;;5004222;28;20384;-67
2022/06/16 11:42:00;;;;;;;6.03;2.95;;;31.10;97.60;;;;;;5005581;28;20037;-67
2022/06/16 11:44:46;;;;;;;6.72;3.17;;;31.10;98.40;;;;;;5005764;28;20041;-68
2022/06/16 11:47:25;;;;;;;8.35;3.08;;;31.40;96.00;;;;;;4988697;28;20018;-68
2022/06/16 11:49:57;;;;;;;6.43;2.75;;;31.60;96.30;;;;;;5005528;28;20052;-68
2022/06/16 11:52:37;;;;;;;8.82;2.85;;;31.50;96.20;;;;;;5020608;28;20032;-67
2022/06/16 11:55:14;;;;;;;5.60;3.00;;;31.50;95.20;;;;;;5012816;28;20466;-68
2022/06/16 11:57:52;;;;;;;7.20;2.70;;;31.70;96.70;;;;;;5025076;28;20034;-67
2022/06/16 12:00:25;;;;;;;6.13;2.53;;;31.60;95.80;;;;;;5017451;28;20041;-67
2022/06/16 12:03:15;;;;;;;6.38;3.03;;;31.30;94.90;;;;;;5017782;28;20124;-67
2022/06/16 12:05:59;;;;;;;4.72;2.65;;;31.10;93.70;;;;;;5000204;28;20037;-67
2022/06/16 12:08:40;;;;;;;6.45;3.03;;;30.80;93.40;;;;;;5007987;28;20030;-67
2022/06/16 12:11:24;;;;;;;7.43;3.20;;;30.80;93.30;;;;;;5026938;28;20044;-67
2022/06/16 12:14:38;;;;;;;6.18;3.00;;;31.10;92.90;;;;;;5006574;28;20025;-76
2022/06/16 12:17:09;;;;;;;7.50;3.20;;;31.40;92.30;;;;;;4998867;28;20053;-67
2022/06/16 12:19:58;;;;;;;5.68;3.15;;;31.50;93.50;;;;;;5006740;28;20093;-68
2022/06/16 12:23:01;;;;;;;5.45;2.70;;;31.50;93.50;;;;;;5007891;28;20379;-78
2022/06/16 12:25:40;;;;;;;5.63;2.75;;;31.70;91.80;;;;;;5007729;28;20744;-76
2022/06/16 12:28:23;;;;;;;6.07;2.88;;;31.80;93.40;;;;;;4999857;28;20045;-76
2022/06/16 12:30:54;;;;;;;5.93;2.77;;;32.20;89.50;;;;;;5029405;28;20481;-76
2022/06/16 12:33:36;;;;;;;4.35;2.85;;;32.20;86.70;;;;;;5029185;28;20260;-77
2022/06/16 12:36:13;;;;;;;4.13;2.22;;;32.40;86.90;;;;;;5010959;28;20033;-77
2022/06/16 12:38:49;;;;;;;7.43;2.92;;;32.70;85.90;;;;;;5028933;28;20025;-76
2022/06/16 12:41:48;;;;;;;4.82;2.35;;;32.60;82.00;;;;;;5029673;28;20088;-76
2022/06/16 12:44:49;;;;;;;5.40;2.47;;;33.00;80.80;;;;;;5020457;28;20037;-76
2022/06/16 12:47:28;;;;;;;4.75;2.17;;;33.10;76.60;;;;;;5026628;28;20101;-76
2022/06/16 12:50:07;;;;;;;3.25;2.13;;;33.20;69.80;;;;;;5028608;28;20022;-76
2022/06/16 12:53:00;;;;;;;4.82;2.20;;;33.00;71.50;;;;;;5025505;28;20029;-76
2022/06/16 12:55:51;;;;;;;4.03;2.47;;;33.00;70.40;;;;;;5023979;28;20117;-76
2022/06/16 12:58:24;;;;;;;5.00;2.45;;;33.10;68.50;;;;;;5027546;28;20466;-77
2022/06/16 13:00:56;;;;;;;4.13;2.20;;;32.90;71.20;;;;;;5028977;28;20116;-77
2022/06/16 13:03:27;;;;;;;5.80;2.50;;;33.10;69.10;;;;;;5029014;28;20159;-76
2022/06/16 13:05:56;;;;;;;5.60;2.05;;;33.10;71.90;;;;;;5029149;28;20386;-77
2022/06/16 13:08:24;;;;;;;5.97;2.25;;;33.40;70.60;;;;;;5029543;28;20025;-76
2022/06/16 13:10:55;;;;;;;3.78;2.10;;;33.70;68.90;;;;;;5027647;28;20064;-76
2022/06/16 13:13:31;;;;;;;10.38;2.50;;;33.50;66.20;;;;;;5030462;28;20096;-76
2022/06/16 13:16:01;;;;;;;7.63;2.38;;;33.40;66.40;;;;;;5033005;28;20036;-76
2022/06/16 13:18:40;;;;;;;6.45;2.00;;;33.30;67.80;;;;;;5030475;28;20029;-76
2022/06/16 13:21:07;;;;;;;5.90;2.35;;;33.20;66.80;;;;;;5033096;28;20029;-77
2022/06/16 13:23:36;;;;;;;10.10;2.70;;;33.00;68.40;;;;;;5030540;28;20030;-76
2022/06/16 13:26:21;;;;;;;7.75;2.60;;;33.00;67.40;;;;;;5015148;28;20734;-77
2022/06/16 13:28:51;;;;;;;4.82;2.17;;;33.00;69.40;;;;;;5018886;28;20053;-76
2022/06/16 13:31:24;;;;;;;5.15;2.05;;;32.90;68.70;;;;;;5010689;28;20036;-76
2022/06/16 13:34:12;;;;;;;4.95;2.20;;;32.90;69.10;;;;;;5012814;28;20054;-75
2022/06/16 13:36:47;;;;;;;8.80;2.90;;;32.70;69.40;;;;;;5019119;28;20034;-76